Time;durP1;ratioP1;P1;durP2;ratioP2;P2;SDS_P1;SDS_P2;PMS_P1;PMS_P2;Temp;Humidity;BMP_temperature;BMP_pressure;BME280_temperature;BME280_humidity;BME280_pressure;Samples;Min_cycle;Max_cycle;Signal;HPM_P1;HPM_P2
2021/04/08 00:00:09;;;;;;;3.88;3.50;;;2.60;99.90;;;;;;5031162;28;20323;-40
2021/04/08 00:02:39;;;;;;;3.97;2.92;;;2.70;99.90;;;;;;5031127;28;20746;-39
2021/04/08 00:05:07;;;;;;;9.95;3.33;;;2.70;99.90;;;;;;5031123;28;20243;-40
2021/04/08 00:07:35;;;;;;;4.43;3.28;;;2.70;99.90;;;;;;5031162;28;20204;-40
2021/04/08 00:10:02;;;;;;;4.20;3.10;;;2.70;99.90;;;;;;5030971;28;20209;-40
2021/04/08 00:12:29;;;;;;;7.25;4.80;;;2.70;99.90;;;;;;5031082;28;20240;-40
2021/04/08 00:14:56;;;;;;;6.03;3.92;;;2.70;99.90;;;;;;5031256;28;20244;-40
2021/04/08 00:17:24;;;;;;;4.70;3.03;;;2.70;99.90;;;;;;5033418;28;20287;-40
2021/04/08 00:19:51;;;;;;;4.03;3.30;;;2.70;99.90;;;;;;5034588;28;20236;-40
2021/04/08 00:22:18;;;;;;;4.68;3.40;;;2.70;99.90;;;;;;5034534;28;20319;-40
2021/04/08 00:24:46;;;;;;;3.30;3.08;;;2.70;99.90;;;;;;5034321;28;20299;-41
2021/04/08 00:27:13;;;;;;;3.65;2.65;;;2.70;99.90;;;;;;5015219;28;579010;-41
2021/04/08 00:29:40;;;;;;;4.85;3.10;;;2.70;99.90;;;;;;5035193;28;20325;-41
2021/04/08 00:32:07;;;;;;;5.57;3.10;;;2.70;99.90;;;;;;5035899;28;20258;-40
2021/04/08 00:34:34;;;;;;;6.07;3.33;;;2.60;99.90;;;;;;5035683;28;20267;-40
2021/04/08 00:37:01;;;;;;;3.70;3.10;;;2.60;99.90;;;;;;5035488;28;20259;-40
2021/04/08 00:39:28;;;;;;;4.00;3.42;;;2.60;99.90;;;;;;5035460;28;20215;-40
2021/04/08 00:41:56;;;;;;;3.75;3.22;;;2.50;99.90;;;;;;5035681;28;20256;-40
2021/04/08 00:44:23;;;;;;;4.47;3.80;;;2.60;99.90;;;;;;5035666;28;20577;-40
2021/04/08 00:46:50;;;;;;;5.28;3.90;;;2.50;99.90;;;;;;5035362;28;20741;-40
2021/04/08 00:49:17;;;;;;;6.05;3.88;;;2.50;99.90;;;;;;5035379;28;20212;-40
2021/04/08 00:51:44;;;;;;;3.95;3.05;;;2.50;99.90;;;;;;5035342;28;20208;-40
2021/04/08 00:54:11;;;;;;;4.25;2.90;;;2.60;99.90;;;;;;5035527;28;20291;-40
2021/04/08 00:56:39;;;;;;;3.65;3.03;;;2.60;99.90;;;;;;5035363;28;20316;-40
2021/04/08 00:59:07;;;;;;;3.63;3.03;;;2.50;99.90;;;;;;5035248;28;20680;-41
2021/04/08 01:01:35;;;;;;;4.15;3.67;;;2.50;99.90;;;;;;5035253;28;20235;-40
2021/04/08 01:04:02;;;;;;;4.22;2.75;;;2.60;99.90;;;;;;5035082;28;20212;-40
2021/04/08 01:06:29;;;;;;;4.60;3.50;;;2.50;99.90;;;;;;5035071;28;20209;-40
2021/04/08 01:08:56;;;;;;;4.95;2.72;;;2.60;99.90;;;;;;5034894;28;20248;-40
2021/04/08 01:11:23;;;;;;;4.28;3.85;;;2.60;99.90;;;;;;5035186;28;20284;-40
2021/04/08 01:13:51;;;;;;;2.80;2.60;;;2.60;99.90;;;;;;5035064;28;20292;-40
2021/04/08 01:16:29;;;;;;;4.07;3.05;;;2.50;99.90;;;;;;5034279;28;20215;-39
2021/04/08 01:19:01;;;;;;;4.85;3.00;;;2.50;99.90;;;;;;5034874;28;20274;-39
2021/04/08 01:21:36;;;;;;;5.78;3.75;;;2.60;99.90;;;;;;5034937;28;20235;-40
2021/04/08 01:24:37;;;;;;;4.22;3.20;;;2.60;99.90;;;;;;5034858;28;20212;-39
2021/04/08 01:27:34;;;;;;;7.22;3.97;;;2.60;99.90;;;;;;5034191;28;20240;-39
2021/04/08 01:30:38;;;;;;;4.38;3.40;;;2.70;99.90;;;;;;5034867;28;20680;-39
2021/04/08 01:33:10;;;;;;;8.98;3.90;;;2.60;99.90;;;;;;5034767;28;20223;-40
2021/04/08 01:35:42;;;;;;;4.43;3.45;;;2.60;99.90;;;;;;5034605;28;20209;-40
2021/04/08 01:38:13;;;;;;;5.43;3.63;;;2.70;99.90;;;;;;5034582;28;20216;-40
2021/04/08 01:40:40;;;;;;;4.18;3.50;;;2.70;99.90;;;;;;5034576;28;20315;-39
2021/04/08 01:43:08;;;;;;;3.92;3.58;;;2.70;99.90;;;;;;5034477;28;20215;-38
2021/04/08 01:45:37;;;;;;;6.60;3.97;;;2.70;99.90;;;;;;5034335;28;20762;-39
2021/04/08 01:48:06;;;;;;;5.53;3.92;;;2.60;99.90;;;;;;5034449;28;20244;-39
2021/04/08 01:50:34;;;;;;;5.82;3.60;;;2.60;99.90;;;;;;5034553;28;20204;-39
2021/04/08 01:53:02;;;;;;;6.28;3.83;;;2.50;99.90;;;;;;5034223;28;20619;-39
2021/04/08 01:55:31;;;;;;;6.68;4.53;;;2.40;99.90;;;;;;5034367;28;20295;-39
2021/04/08 01:58:01;;;;;;;4.50;3.83;;;2.30;99.90;;;;;;5034249;28;20209;-39
2021/04/08 02:00:28;;;;;;;7.38;3.75;;;2.10;99.90;;;;;;5033891;28;20778;-39
2021/04/08 02:02:57;;;;;;;6.63;4.70;;;2.00;99.90;;;;;;5034061;28;20248;-38
2021/04/08 02:05:26;;;;;;;5.72;4.68;;;1.90;99.90;;;;;;5034185;28;20240;-39
2021/04/08 02:07:55;;;;;;;5.70;4.07;;;1.80;99.90;;;;;;5034120;28;20255;-38
2021/04/08 02:10:23;;;;;;;4.90;4.28;;;1.80;99.90;;;;;;5033895;28;20724;-39
2021/04/08 02:12:51;;;;;;;6.53;3.95;;;1.80;99.90;;;;;;5033785;28;20307;-39
2021/04/08 02:15:21;;;;;;;5.25;4.03;;;1.80;99.90;;;;;;5033867;28;20392;-39
2021/04/08 02:17:53;;;;;;;5.40;3.15;;;1.80;99.90;;;;;;5033748;28;20734;-39
2021/04/08 02:20:23;;;;;;;5.88;4.20;;;1.80;99.90;;;;;;5033821;28;20232;-38
2021/04/08 02:22:53;;;;;;;6.13;4.90;;;1.80;99.90;;;;;;5033661;28;20304;-39
2021/04/08 02:25:23;;;;;;;6.03;4.43;;;1.80;99.90;;;;;;5033786;28;20331;-39
2021/04/08 02:27:52;;;;;;;6.32;4.65;;;1.80;99.90;;;;;;5033470;28;20290;-39
2021/04/08 02:30:23;;;;;;;5.85;4.50;;;1.80;99.90;;;;;;5033810;28;20280;-39
2021/04/08 02:32:51;;;;;;;6.45;4.95;;;1.70;99.90;;;;;;5033645;28;20603;-39
2021/04/08 02:35:18;;;;;;;6.70;4.50;;;1.70;99.90;;;;;;5033520;28;20676;-39
2021/04/08 02:37:47;;;;;;;8.90;4.82;;;1.70;99.90;;;;;;5033628;28;20395;-40
2021/04/08 02:40:16;;;;;;;6.85;5.07;;;1.70;99.90;;;;;;5032296;28;20722;-40
2021/04/08 02:42:44;;;;;;;8.43;5.70;;;1.70;99.90;;;;;;5033375;28;20213;-40
2021/04/08 02:45:11;;;;;;;9.18;5.53;;;1.80;99.90;;;;;;5033442;28;20303;-39
2021/04/08 02:47:39;;;;;;;8.70;5.93;;;1.80;99.90;;;;;;5033314;28;20300;-39
2021/04/08 02:50:08;;;;;;;5.45;4.95;;;1.80;99.90;;;;;;5033047;28;20303;-39
2021/04/08 02:52:52;;;;;;;6.57;5.85;;;1.80;99.90;;;;;;5033044;28;20248;-39
2021/04/08 02:55:24;;;;;;;7.97;5.15;;;1.70;99.90;;;;;;5033319;28;20568;-39
2021/04/08 02:57:59;;;;;;;8.60;5.75;;;1.70;99.90;;;;;;5032975;28;20216;-39
2021/04/08 03:00:30;;;;;;;8.65;5.20;;;1.70;99.90;;;;;;5033153;28;20267;-39
2021/04/08 03:03:02;;;;;;;6.93;4.82;;;1.80;99.90;;;;;;5033846;28;20235;-39
2021/04/08 03:05:31;;;;;;;6.95;5.55;;;1.80;99.90;;;;;;5034337;28;20283;-40
2021/04/08 03:08:03;;;;;;;7.18;5.75;;;1.80;99.90;;;;;;5033165;28;20230;-40
2021/04/08 03:10:31;;;;;;;8.50;6.20;;;1.80;99.90;;;;;;5033761;28;20204;-40
2021/04/08 03:13:01;;;;;;;7.10;5.80;;;1.80;99.90;;;;;;5032666;28;20256;-40
2021/04/08 03:15:30;;;;;;;7.32;6.00;;;1.80;99.90;;;;;;5032531;28;20258;-40
2021/04/08 03:18:00;;;;;;;12.02;7.57;;;1.80;99.90;;;;;;5032551;28;20213;-40
2021/04/08 03:20:28;;;;;;;12.32;7.55;;;1.80;99.90;;;;;;5032568;28;20671;-39
2021/04/08 03:23:00;;;;;;;7.85;7.00;;;1.80;99.90;;;;;;5012496;28;20256;-40
2021/04/08 03:25:28;;;;;;;8.00;7.10;;;1.90;99.90;;;;;;5012065;28;20214;-40
2021/04/08 03:27:57;;;;;;;9.93;7.03;;;1.90;99.90;;;;;;5012742;28;20244;-39
2021/04/08 03:30:25;;;;;;;12.88;8.65;;;1.90;99.90;;;;;;5012519;28;20233;-40
2021/04/08 03:32:54;;;;;;;9.63;7.20;;;1.90;99.90;;;;;;5015559;28;20663;-40
2021/04/08 03:35:22;;;;;;;8.48;6.30;;;1.90;99.90;;;;;;5030584;28;20247;-40
2021/04/08 03:37:50;;;;;;;8.10;7.00;;;1.90;99.90;;;;;;5012729;28;20209;-39
2021/04/08 03:40:17;;;;;;;11.65;8.27;;;2.00;99.90;;;;;;5012486;28;20232;-40
2021/04/08 03:42:45;;;;;;;6.72;5.82;;;2.00;99.90;;;;;;5012495;28;20292;-40
2021/04/08 03:45:13;;;;;;;11.23;7.03;;;2.00;99.90;;;;;;5012795;28;20241;-40
2021/04/08 03:47:42;;;;;;;9.00;6.75;;;2.00;99.90;;;;;;5012662;28;20312;-40
2021/04/08 03:50:11;;;;;;;6.53;5.88;;;2.00;99.90;;;;;;5012530;28;20541;-40
2021/04/08 03:52:39;;;;;;;6.70;5.95;;;2.00;99.90;;;;;;5012476;28;20209;-39
2021/04/08 03:55:08;;;;;;;9.63;5.88;;;2.00;99.90;;;;;;5012436;28;20296;-39
2021/04/08 03:57:38;;;;;;;10.65;6.38;;;2.00;99.90;;;;;;5012396;28;20217;-39
2021/04/08 04:00:07;;;;;;;8.70;6.22;;;2.00;99.90;;;;;;5012484;28;20206;-40
2021/04/08 04:02:36;;;;;;;9.52;5.72;;;2.10;99.90;;;;;;5012077;28;20241;-40
2021/04/08 04:05:05;;;;;;;9.90;7.13;;;2.10;99.90;;;;;;5012079;28;20301;-40
2021/04/08 04:07:34;;;;;;;13.02;7.28;;;2.10;99.90;;;;;;5012169;28;20300;-46
2021/04/08 04:10:01;;;;;;;11.38;6.68;;;2.10;99.90;;;;;;5012339;28;20241;-40
2021/04/08 04:12:28;;;;;;;8.75;5.38;;;2.10;99.90;;;;;;5012521;28;20205;-40
2021/04/08 04:14:57;;;;;;;7.18;5.53;;;2.10;99.90;;;;;;5012332;28;20280;-41
2021/04/08 04:17:26;;;;;;;5.70;5.20;;;2.10;99.90;;;;;;5012330;28;20252;-40
2021/04/08 04:19:55;;;;;;;5.80;5.20;;;2.10;99.90;;;;;;5012133;28;20210;-41
2021/04/08 04:22:37;;;;;;;6.63;5.50;;;2.10;99.90;;;;;;5012423;28;20201;-40
2021/04/08 04:25:06;;;;;;;5.63;4.22;;;2.00;99.90;;;;;;5012395;28;20318;-40
2021/04/08 04:27:33;;;;;;;5.80;5.22;;;2.00;99.90;;;;;;5012486;28;20264;-39
2021/04/08 04:30:01;;;;;;;10.70;7.18;;;1.90;99.90;;;;;;5012578;28;20304;-39
2021/04/08 04:32:28;;;;;;;6.28;4.75;;;2.00;99.90;;;;;;5012356;28;20252;-39
2021/04/08 04:34:56;;;;;;;7.57;4.95;;;2.00;99.90;;;;;;5012149;28;20699;-40
2021/04/08 04:37:23;;;;;;;6.75;5.30;;;2.00;99.90;;;;;;5012349;28;20301;-39
2021/04/08 04:39:50;;;;;;;9.23;5.50;;;2.10;99.90;;;;;;5012487;28;20313;-41
2021/04/08 04:42:17;;;;;;;8.02;5.07;;;2.10;99.90;;;;;;5012003;28;20236;-40
2021/04/08 04:44:44;;;;;;;6.05;4.68;;;2.10;99.90;;;;;;5011927;28;20216;-41
2021/04/08 04:47:11;;;;;;;5.28;4.70;;;2.20;99.90;;;;;;5011979;28;20241;-41
2021/04/08 04:49:38;;;;;;;5.38;4.45;;;2.20;99.90;;;;;;5012524;28;20249;-40
2021/04/08 04:52:06;;;;;;;5.82;5.32;;;2.20;99.90;;;;;;5012660;28;20337;-41
2021/04/08 04:54:34;;;;;;;6.22;5.18;;;2.20;99.90;;;;;;5015095;28;20245;-40
2021/04/08 04:57:01;;;;;;;5.55;5.05;;;2.20;99.90;;;;;;5012285;28;20596;-41
2021/04/08 04:59:28;;;;;;;5.82;5.28;;;2.20;99.90;;;;;;5012327;28;20565;-40
2021/04/08 05:01:55;;;;;;;6.38;5.55;;;2.20;99.90;;;;;;5011627;28;20799;-41
2021/04/08 05:04:22;;;;;;;8.52;5.45;;;2.30;99.90;;;;;;5015541;28;20605;-40
2021/04/08 05:06:49;;;;;;;8.50;5.05;;;2.30;99.90;;;;;;5015604;28;20311;-40
2021/04/08 05:09:17;;;;;;;6.72;5.80;;;2.30;99.90;;;;;;5015478;28;20293;-40
2021/04/08 05:11:44;;;;;;;7.25;5.90;;;2.30;99.90;;;;;;5015450;28;20205;-39
2021/04/08 05:14:11;;;;;;;10.35;5.63;;;2.30;99.90;;;;;;5015270;28;20214;-39
2021/04/08 05:16:38;;;;;;;6.70;5.30;;;2.30;99.90;;;;;;5015073;28;20300;-40
2021/04/08 05:19:05;;;;;;;6.72;5.57;;;2.40;99.90;;;;;;5015071;28;20269;-40
2021/04/08 05:21:32;;;;;;;7.65;5.47;;;2.50;99.90;;;;;;5015170;28;20336;-40
2021/04/08 05:23:59;;;;;;;6.43;5.18;;;2.50;99.90;;;;;;5015080;28;20245;-40
2021/04/08 05:26:27;;;;;;;8.15;5.47;;;2.50;99.90;;;;;;5014878;28;20740;-42
2021/04/08 05:28:54;;;;;;;8.77;5.45;;;2.60;99.90;;;;;;5014727;28;20213;-40
2021/04/08 05:31:21;;;;;;;8.55;5.45;;;2.60;99.90;;;;;;5014563;28;20951;-40
2021/04/08 05:33:49;;;;;;;9.65;6.75;;;2.60;99.90;;;;;;5015003;28;20621;-40
2021/04/08 05:36:16;;;;;;;6.70;6.00;;;2.70;99.90;;;;;;5014938;28;20310;-41
2021/04/08 05:38:43;;;;;;;12.70;8.98;;;2.80;99.90;;;;;;5014571;28;20237;-41
2021/04/08 05:41:10;;;;;;;10.30;5.93;;;2.80;99.90;;;;;;5014540;28;20775;-42
2021/04/08 05:43:38;;;;;;;11.75;5.88;;;2.80;99.90;;;;;;5014471;28;20209;-40
2021/04/08 05:46:09;;;;;;;15.25;6.53;;;2.80;99.90;;;;;;5014854;28;20642;-42
2021/04/08 05:48:36;;;;;;;8.13;6.25;;;2.80;99.90;;;;;;5014506;28;20213;-41
2021/04/08 05:51:04;;;;;;;14.68;6.97;;;2.80;99.90;;;;;;5014531;28;20288;-40
2021/04/08 05:53:31;;;;;;;17.70;7.60;;;2.80;99.90;;;;;;5014552;28;20293;-40
2021/04/08 05:55:58;;;;;;;9.23;6.63;;;2.90;99.90;;;;;;5014374;28;20244;-40
2021/04/08 05:58:25;;;;;;;9.13;5.35;;;2.90;99.90;;;;;;5014370;28;20307;-40
2021/04/08 06:00:53;;;;;;;9.77;6.60;;;3.00;99.90;;;;;;5014269;28;20264;-41
2021/04/08 06:03:20;;;;;;;11.38;8.25;;;3.00;99.90;;;;;;5013906;28;20255;-40
2021/04/08 06:05:47;;;;;;;15.43;6.32;;;3.00;99.90;;;;;;5013939;28;20213;-41
2021/04/08 06:08:14;;;;;;;8.57;5.47;;;3.10;99.90;;;;;;5013888;28;20209;-41
2021/04/08 06:10:41;;;;;;;8.88;6.65;;;3.10;99.90;;;;;;5013737;28;20209;-42
2021/04/08 06:13:08;;;;;;;6.45;5.45;;;3.20;99.90;;;;;;5013687;28;20213;-42
2021/04/08 06:15:36;;;;;;;11.52;6.78;;;3.20;99.90;;;;;;5012891;28;20209;-40
2021/04/08 06:18:04;;;;;;;7.20;6.15;;;3.30;99.90;;;;;;5013920;28;20224;-42
2021/04/08 06:20:31;;;;;;;8.45;6.57;;;3.30;99.90;;;;;;5013682;28;20213;-42
2021/04/08 06:23:04;;;;;;;13.63;7.15;;;3.30;99.90;;;;;;5013656;28;20225;-45
2021/04/08 06:25:31;;;;;;;10.15;6.55;;;3.30;99.90;;;;;;5013483;28;20217;-39
2021/04/08 06:27:58;;;;;;;7.88;6.75;;;3.30;99.90;;;;;;5012984;28;20281;-40
2021/04/08 06:30:26;;;;;;;34.22;19.23;;;3.40;99.90;;;;;;5013143;28;20643;-43
2021/04/08 06:32:53;;;;;;;45.15;31.27;;;3.50;99.90;;;;;;5013426;28;20241;-39
2021/04/08 06:35:23;;;;;;;11.82;9.70;;;3.50;99.90;;;;;;5013297;28;20217;-41
2021/04/08 06:37:51;;;;;;;9.15;6.75;;;3.60;99.90;;;;;;5013188;28;20328;-40
2021/04/08 06:40:20;;;;;;;11.30;6.93;;;3.60;99.90;;;;;;5013178;28;20210;-41
2021/04/08 06:42:48;;;;;;;11.13;7.20;;;3.60;99.90;;;;;;5012992;28;20700;-41
2021/04/08 06:45:16;;;;;;;8.55;6.88;;;3.60;99.90;;;;;;5013299;28;20627;-41
2021/04/08 06:47:55;;;;;;;11.70;7.30;;;3.70;99.90;;;;;;5013202;28;20286;-41
2021/04/08 06:50:25;;;;;;;11.38;7.15;;;3.70;99.90;;;;;;5013040;28;20237;-41
2021/04/08 06:52:53;;;;;;;6.88;6.05;;;3.80;99.90;;;;;;5013476;28;20255;-41
2021/04/08 06:55:21;;;;;;;10.75;6.25;;;3.90;99.90;;;;;;5013079;28;20300;-40
2021/04/08 06:57:49;;;;;;;7.30;6.53;;;3.90;99.90;;;;;;5012921;28;20252;-41
2021/04/08 07:00:17;;;;;;;7.97;6.70;;;3.90;99.90;;;;;;5013135;28;20601;-43
2021/04/08 07:02:45;;;;;;;9.50;7.20;;;3.90;99.90;;;;;;5012767;28;20261;-41
2021/04/08 07:05:13;;;;;;;9.27;6.43;;;4.00;99.90;;;;;;5012982;28;20233;-40
2021/04/08 07:07:41;;;;;;;6.35;5.75;;;4.10;99.90;;;;;;5012845;28;20338;-40
2021/04/08 07:10:08;;;;;;;6.88;6.15;;;4.20;99.90;;;;;;5012957;28;20213;-40
2021/04/08 07:12:35;;;;;;;11.13;7.07;;;4.20;99.90;;;;;;5012974;28;20381;-40
2021/04/08 07:15:03;;;;;;;7.63;6.63;;;4.30;99.90;;;;;;5012765;28;20271;-40
2021/04/08 07:17:30;;;;;;;8.23;6.38;;;4.30;99.90;;;;;;5014543;28;20719;-41
2021/04/08 07:19:57;;;;;;;8.90;8.00;;;4.40;99.90;;;;;;5032209;28;20312;-40
2021/04/08 07:22:25;;;;;;;10.63;7.45;;;4.50;99.90;;;;;;5032263;28;20699;-40
2021/04/08 07:24:54;;;;;;;7.45;6.70;;;4.50;99.90;;;;;;5031957;28;20643;-41
2021/04/08 07:27:22;;;;;;;7.18;5.95;;;4.60;99.90;;;;;;5032160;28;20241;-41
2021/04/08 07:29:56;;;;;;;9.30;7.05;;;4.70;99.90;;;;;;5032374;28;20240;-41
2021/04/08 07:32:26;;;;;;;9.15;6.25;;;4.80;99.90;;;;;;5032351;28;20725;-41
2021/04/08 07:34:54;;;;;;;9.82;6.22;;;4.80;99.90;;;;;;5032333;28;20259;-40
2021/04/08 07:37:24;;;;;;;8.48;6.60;;;4.90;99.90;;;;;;5032123;28;20236;-42
2021/04/08 07:39:51;;;;;;;7.97;6.40;;;5.00;99.90;;;;;;5032007;28;20667;-41
2021/04/08 07:42:25;;;;;;;9.82;6.07;;;5.10;99.90;;;;;;5031700;28;20327;-39
2021/04/08 07:44:53;;;;;;;7.80;6.93;;;5.10;99.90;;;;;;5032572;28;20243;-39
2021/04/08 07:47:23;;;;;;;7.32;6.32;;;5.10;99.90;;;;;;5032046;28;20471;-40
2021/04/08 07:49:52;;;;;;;8.75;7.22;;;5.30;99.90;;;;;;5031836;28;20288;-40
2021/04/08 07:52:22;;;;;;;12.63;6.90;;;5.40;99.90;;;;;;5031876;28;20220;-40
2021/04/08 07:54:57;;;;;;;8.43;7.35;;;5.40;99.90;;;;;;5031789;28;20291;-41
2021/04/08 07:57:26;;;;;;;10.02;6.75;;;5.60;99.90;;;;;;5031907;28;20647;-41
2021/04/08 07:59:53;;;;;;;8.38;6.85;;;5.70;99.90;;;;;;5031759;28;20762;-41
2021/04/08 08:02:24;;;;;;;10.80;9.38;;;5.80;99.90;;;;;;5031831;28;20318;-41
2021/04/08 08:05:18;;;;;;;7.88;7.07;;;5.90;99.90;;;;;;5031814;28;20297;-42
2021/04/08 08:07:45;;;;;;;7.63;6.82;;;5.90;99.90;;;;;;5031958;28;20248;-41
2021/04/08 08:10:17;;;;;;;7.75;6.28;;;5.80;99.90;;;;;;5032165;28;20208;-41
2021/04/08 08:12:44;;;;;;;7.10;6.25;;;5.80;99.90;;;;;;5031745;28;20208;-41
2021/04/08 08:15:20;;;;;;;6.82;6.22;;;5.90;99.90;;;;;;5032525;28;20243;-41
2021/04/08 08:17:47;;;;;;;8.93;5.72;;;6.00;99.90;;;;;;5031688;28;20255;-41
2021/04/08 08:20:15;;;;;;;7.25;6.50;;;6.00;99.90;;;;;;5031540;28;20216;-41
2021/04/08 08:22:46;;;;;;;6.68;6.07;;;6.10;99.60;;;;;;5031563;28;20236;-42
2021/04/08 08:25:15;;;;;;;7.85;6.25;;;6.00;99.10;;;;;;5031534;28;20315;-41
2021/04/08 08:27:44;;;;;;;6.85;5.72;;;6.00;99.10;;;;;;5032622;28;20283;-41
2021/04/08 08:30:17;;;;;;;6.82;6.20;;;5.90;98.90;;;;;;5031227;28;20305;-40
2021/04/08 08:33:05;;;;;;;8.30;6.88;;;5.80;99.20;;;;;;5031772;28;20606;-41
2021/04/08 08:35:32;;;;;;;7.38;6.68;;;5.80;99.10;;;;;;5031626;28;20205;-42
2021/04/08 08:38:08;;;;;;;7.65;6.22;;;5.90;99.40;;;;;;5033182;28;20303;-41
2021/04/08 08:40:36;;;;;;;6.80;6.10;;;6.20;99.00;;;;;;5035237;28;20304;-40
2021/04/08 08:43:05;;;;;;;7.47;6.78;;;6.20;98.30;;;;;;5035247;28;20560;-42
2021/04/08 08:45:33;;;;;;;7.40;6.65;;;6.20;98.20;;;;;;5035359;28;20235;-40
2021/04/08 08:48:03;;;;;;;8.07;5.63;;;6.30;98.10;;;;;;5035276;28;20205;-41
2021/04/08 08:50:31;;;;;;;9.77;8.88;;;6.30;98.00;;;;;;5035182;28;20248;-41
2021/04/08 08:53:01;;;;;;;12.18;10.82;;;6.30;97.90;;;;;;5035294;28;20347;-40
2021/04/08 08:55:30;;;;;;;6.20;5.70;;;6.40;97.90;;;;;;5035000;28;20725;-40
2021/04/08 08:57:58;;;;;;;10.75;6.68;;;6.60;97.70;;;;;;5035163;28;20236;-41
2021/04/08 09:00:29;;;;;;;7.88;6.45;;;6.80;97.10;;;;;;5035169;28;20209;-40
2021/04/08 09:03:01;;;;;;;6.50;5.60;;;6.90;96.40;;;;;;5035173;28;20224;-39
2021/04/08 09:05:29;;;;;;;9.57;6.65;;;6.70;96.60;;;;;;5034989;28;20291;-40
2021/04/08 09:07:59;;;;;;;6.55;5.97;;;6.70;96.40;;;;;;5034902;28;20300;-40
2021/04/08 09:10:48;;;;;;;8.02;6.32;;;6.50;96.20;;;;;;5034712;28;20220;-40
2021/04/08 09:13:15;;;;;;;7.63;6.82;;;6.40;96.70;;;;;;5035160;28;20308;-40
2021/04/08 09:15:42;;;;;;;6.55;5.80;;;6.50;96.60;;;;;;5034650;28;20232;-41
2021/04/08 09:18:10;;;;;;;7.25;6.53;;;6.60;96.50;;;;;;5034372;28;20259;-40
2021/04/08 09:20:38;;;;;;;7.45;6.13;;;6.70;96.20;;;;;;5034716;28;20236;-40
2021/04/08 09:23:08;;;;;;;10.93;6.15;;;6.80;96.10;;;;;;5034657;28;20298;-41
2021/04/08 09:25:37;;;;;;;6.82;5.57;;;7.10;95.90;;;;;;5034545;28;20212;-41
2021/04/08 09:28:08;;;;;;;9.95;6.07;;;7.20;94.80;;;;;;5034452;28;20209;-41
2021/04/08 09:30:48;;;;;;;6.53;5.85;;;7.20;94.80;;;;;;5035089;28;20240;-41
2021/04/08 09:33:16;;;;;;;5.90;4.97;;;7.20;94.10;;;;;;5034621;28;20270;-41
2021/04/08 09:35:44;;;;;;;5.40;4.90;;;7.20;94.30;;;;;;5034555;28;20262;-41
2021/04/08 09:38:15;;;;;;;9.27;5.95;;;7.10;94.30;;;;;;5034360;28;20218;-41
2021/04/08 09:40:57;;;;;;;7.78;4.80;;;7.00;94.40;;;;;;5034354;28;20216;-43
2021/04/08 09:43:29;;;;;;;6.65;5.63;;;7.00;94.60;;;;;;5034536;28;20585;-41
2021/04/08 09:46:16;;;;;;;4.35;4.05;;;7.20;94.10;;;;;;5034671;28;20278;-41
2021/04/08 09:48:49;;;;;;;5.57;5.05;;;7.10;93.50;;;;;;5034315;28;20336;-41
2021/04/08 09:51:28;;;;;;;10.45;6.10;;;6.90;93.30;;;;;;5034168;28;20271;-40
2021/04/08 09:54:03;;;;;;;6.97;4.60;;;6.80;93.30;;;;;;5034292;28;20297;-40
2021/04/08 09:56:46;;;;;;;6.00;5.00;;;6.70;93.70;;;;;;5034201;28;20579;-40
2021/04/08 09:59:16;;;;;;;6.45;5.35;;;6.80;93.40;;;;;;5034338;28;20282;-42
2021/04/08 10:01:44;;;;;;;5.72;5.03;;;7.00;93.00;;;;;;5033764;28;20315;-41
2021/04/08 10:04:14;;;;;;;5.85;4.90;;;7.10;92.50;;;;;;5033815;28;20256;-40
2021/04/08 10:06:42;;;;;;;6.72;5.28;;;7.30;92.30;;;;;;5034171;28;20639;-39
2021/04/08 10:09:10;;;;;;;6.13;4.88;;;7.40;92.20;;;;;;5033996;28;20750;-41
2021/04/08 10:11:38;;;;;;;5.20;4.68;;;7.60;91.70;;;;;;5034792;28;20244;-40
2021/04/08 10:14:20;;;;;;;6.45;4.90;;;7.80;91.60;;;;;;5033921;28;20375;-41
2021/04/08 10:17:00;;;;;;;6.22;4.55;;;8.10;91.40;;;;;;5033668;28;20219;-40
2021/04/08 10:19:32;;;;;;;6.82;4.80;;;8.20;90.30;;;;;;5033868;28;20232;-40
2021/04/08 10:22:00;;;;;;;5.28;4.78;;;8.20;90.40;;;;;;5033705;28;20315;-41
2021/04/08 10:24:33;;;;;;;7.30;5.28;;;8.30;90.20;;;;;;5033305;28;20519;-40
2021/04/08 10:27:00;;;;;;;7.65;4.72;;;8.30;90.10;;;;;;5033268;28;20267;-41
2021/04/08 10:29:32;;;;;;;5.22;4.60;;;8.20;90.10;;;;;;5033560;28;20223;-42
2021/04/08 10:32:00;;;;;;;8.57;4.32;;;8.10;90.20;;;;;;5033168;28;20251;-40
2021/04/08 10:34:34;;;;;;;6.75;5.00;;;7.90;89.50;;;;;;5033263;28;20225;-41
2021/04/08 10:37:03;;;;;;;5.88;5.10;;;7.50;89.50;;;;;;5033334;28;20646;-41
2021/04/08 10:39:32;;;;;;;5.68;5.00;;;7.20;90.70;;;;;;5032848;28;20215;-40
2021/04/08 10:42:04;;;;;;;6.03;4.80;;;6.90;91.10;;;;;;5033177;28;20228;-41
2021/04/08 10:44:36;;;;;;;6.72;5.88;;;6.60;91.30;;;;;;5033138;28;20212;-40
2021/04/08 10:47:10;;;;;;;5.82;5.00;;;6.30;91.60;;;;;;5033196;28;20211;-41
2021/04/08 10:49:42;;;;;;;7.15;5.22;;;6.20;91.80;;;;;;5033017;28;20209;-42
2021/04/08 10:52:11;;;;;;;7.93;5.47;;;6.20;92.30;;;;;;5033091;28;20274;-40
2021/04/08 10:54:40;;;;;;;7.93;5.05;;;6.40;92.30;;;;;;5032958;28;20288;-40
2021/04/08 10:57:08;;;;;;;7.65;5.38;;;6.80;92.00;;;;;;5032896;28;20232;-40
2021/04/08 10:59:40;;;;;;;6.50;5.90;;;7.10;91.80;;;;;;5032375;28;20296;-40
2021/04/08 11:02:24;;;;;;;5.85;5.35;;;7.50;91.30;;;;;;5032792;28;20311;-40
2021/04/08 11:04:53;;;;;;;5.32;4.82;;;7.80;90.40;;;;;;5032851;28;20299;-40
2021/04/08 11:07:20;;;;;;;5.15;4.50;;;7.70;89.80;;;;;;5032646;28;20208;-39
2021/04/08 11:09:48;;;;;;;5.22;4.72;;;7.60;89.70;;;;;;5032716;28;20300;-40
2021/04/08 11:12:18;;;;;;;6.38;4.88;;;7.60;90.00;;;;;;5032522;28;20287;-40
2021/04/08 11:14:47;;;;;;;8.82;5.38;;;7.50;89.30;;;;;;5032385;28;20208;-39
2021/04/08 11:17:16;;;;;;;5.72;4.55;;;7.50;89.80;;;;;;5032563;28;20267;-40
2021/04/08 11:19:45;;;;;;;6.55;5.93;;;7.60;90.00;;;;;;5032616;28;20694;-41
2021/04/08 11:22:14;;;;;;;8.50;4.95;;;7.60;89.40;;;;;;5032280;28;20323;-42
2021/04/08 11:24:42;;;;;;;6.07;5.07;;;7.60;88.90;;;;;;5032262;28;20205;-41
2021/04/08 11:27:09;;;;;;;5.35;4.80;;;7.80;88.80;;;;;;5032041;28;20406;-41
2021/04/08 11:29:39;;;;;;;5.18;4.65;;;7.90;87.80;;;;;;5032221;28;20305;-40
2021/04/08 11:32:08;;;;;;;7.22;5.18;;;8.10;87.70;;;;;;5031894;28;20790;-41
2021/04/08 11:34:44;;;;;;;6.90;5.40;;;8.20;87.30;;;;;;5032113;28;20247;-40
2021/04/08 11:37:12;;;;;;;7.03;4.93;;;8.50;86.10;;;;;;5032060;28;20686;-40
2021/04/08 11:39:39;;;;;;;5.10;4.63;;;8.60;86.00;;;;;;5031803;28;20702;-40
2021/04/08 11:42:17;;;;;;;8.65;5.45;;;8.80;85.50;;;;;;5031559;28;20333;-40
2021/04/08 11:44:45;;;;;;;4.88;4.38;;;9.00;85.40;;;;;;5032161;28;20212;-40
2021/04/08 11:47:15;;;;;;;5.72;4.88;;;8.90;84.70;;;;;;5032064;28;20248;-40
2021/04/08 11:49:46;;;;;;;4.80;4.30;;;8.80;85.10;;;;;;5031817;28;20212;-41
2021/04/08 11:52:15;;;;;;;5.72;4.97;;;8.80;84.20;;;;;;5031958;28;20299;-41
2021/04/08 11:55:04;;;;;;;5.32;4.15;;;8.80;83.50;;;;;;5032105;28;20209;-41
2021/04/08 11:57:32;;;;;;;5.50;4.88;;;8.70;80.70;;;;;;5031700;28;20244;-41
2021/04/08 12:00:01;;;;;;;4.35;4.00;;;8.70;83.30;;;;;;5033472;28;20303;-42
2021/04/08 12:02:31;;;;;;;5.05;4.53;;;8.80;83.00;;;;;;5033028;28;20221;-40
2021/04/08 12:05:00;;;;;;;6.50;5.30;;;9.00;82.70;;;;;;5032531;28;20208;-40
2021/04/08 12:07:27;;;;;;;10.45;9.35;;;9.10;81.90;;;;;;5032381;28;20258;-40
2021/04/08 12:09:54;;;;;;;6.50;5.47;;;9.00;80.20;;;;;;5032868;28;20240;-40
2021/04/08 12:12:32;;;;;;;6.35;4.50;;;9.00;80.80;;;;;;5035192;28;20243;-41
2021/04/08 12:15:02;;;;;;;8.60;4.60;;;9.00;80.40;;;;;;5036429;28;20251;-41
2021/04/08 12:17:31;;;;;;;5.65;4.85;;;9.20;80.80;;;;;;5036652;28;20258;-40
2021/04/08 12:20:13;;;;;;;7.78;4.38;;;9.30;81.10;;;;;;5036317;28;20647;-40
2021/04/08 12:22:40;;;;;;;6.82;4.60;;;9.40;77.60;;;;;;5036144;28;20224;-41
2021/04/08 12:25:10;;;;;;;5.72;4.70;;;9.60;78.80;;;;;;5036266;28;20596;-39
2021/04/08 12:27:37;;;;;;;6.13;4.63;;;9.50;77.60;;;;;;5036937;28;20233;-40
2021/04/08 12:30:06;;;;;;;6.45;4.30;;;9.30;78.00;;;;;;5037069;28;20236;-43
2021/04/08 12:32:34;;;;;;;6.80;4.43;;;9.00;78.60;;;;;;5036466;28;20208;-40
2021/04/08 12:35:02;;;;;;;5.32;4.20;;;8.90;79.30;;;;;;5036343;28;20208;-40
2021/04/08 12:37:29;;;;;;;5.85;4.18;;;8.80;79.00;;;;;;5036440;28;20288;-41
2021/04/08 12:39:56;;;;;;;10.40;3.88;;;8.90;79.10;;;;;;5036367;28;20258;-40
2021/04/08 12:42:23;;;;;;;5.90;4.15;;;8.80;78.40;;;;;;5036189;28;20661;-40
2021/04/08 12:44:50;;;;;;;4.80;4.05;;;8.70;77.60;;;;;;5035995;28;20216;-41
2021/04/08 12:47:19;;;;;;;5.05;4.63;;;8.70;78.00;;;;;;5035724;28;20243;-40
2021/04/08 12:49:47;;;;;;;6.82;5.13;;;8.90;77.90;;;;;;5036050;28;20410;-41
2021/04/08 12:52:15;;;;;;;8.73;4.85;;;9.00;76.00;;;;;;5035771;28;20200;-39
2021/04/08 12:54:42;;;;;;;8.05;5.93;;;9.20;76.30;;;;;;5035249;28;20204;-40
2021/04/08 12:57:09;;;;;;;8.30;4.07;;;9.30;76.10;;;;;;5035333;28;20223;-40
2021/04/08 12:59:37;;;;;;;4.72;4.25;;;9.50;75.30;;;;;;5035490;28;20209;-40
2021/04/08 13:02:06;;;;;;;5.30;3.92;;;9.60;74.80;;;;;;5035232;28;20228;-39
2021/04/08 13:04:33;;;;;;;5.30;4.80;;;9.60;74.70;;;;;;5035429;28;20212;-40
2021/04/08 13:07:01;;;;;;;5.25;4.38;;;9.80;73.70;;;;;;5035264;28;20215;-38